createdAt,value
2018-06-03T00:00:57.912Z,959.36
2018-06-03T00:01:57.938Z,959.32
2018-06-03T00:02:57.964Z,959.33
2018-06-03T00:03:57.988Z,959.3
2018-06-03T00:04:58.013Z,959.35
2018-06-03T00:05:58.041Z,959.33
2018-06-03T00:06:58.066Z,959.31
2018-06-03T00:07:58.091Z,959.31
2018-06-03T00:08:58.117Z,959.3
2018-06-03T00:09:58.146Z,959.3
2018-06-03T00:10:58.168Z,959.29
2018-06-03T00:11:58.192Z,959.25
2018-06-03T00:12:58.219Z,959.26
2018-06-03T00:13:58.242Z,959.23
2018-06-03T00:14:58.267Z,959.23
2018-06-03T00:15:58.293Z,959.2
2018-06-03T00:16:58.318Z,959.19
2018-06-03T00:17:58.342Z,959.17
2018-06-03T00:18:58.368Z,959.13
2018-06-03T00:19:58.393Z,959.15
2018-06-03T00:20:58.419Z,959.17
2018-06-03T00:21:58.494Z,959.17
2018-06-03T00:22:58.473Z,959.17
2018-06-03T00:23:58.495Z,959.16
2018-06-03T00:24:58.522Z,959.17
2018-06-03T00:25:58.545Z,959.2
2018-06-03T00:26:58.571Z,959.24
2018-06-03T00:27:58.597Z,959.22
2018-06-03T00:28:58.622Z,959.19
2018-06-03T00:29:58.648Z,959.19
2018-06-03T00:30:58.672Z,959.21
2018-06-03T00:31:58.703Z,959.19
2018-06-03T00:32:58.723Z,959.25
2018-06-03T00:33:58.746Z,959.24
2018-06-03T00:34:58.773Z,959.27
2018-06-03T00:35:58.799Z,959.19
2018-06-03T00:36:58.873Z,959.22
2018-06-03T00:37:58.863Z,959.2
2018-06-03T00:38:58.875Z,959.21
2018-06-03T00:39:58.899Z,959.17
2018-06-03T00:40:58.924Z,959.19
2018-06-03T00:41:58.949Z,959.19
2018-06-03T00:42:58.974Z,959.18
2018-06-03T00:43:59.000Z,959.16
2018-06-03T00:44:59.025Z,959.16
2018-06-03T00:45:59.050Z,959.15
2018-06-03T00:46:59.074Z,959.13
2018-06-03T00:47:59.098Z,959.12
2018-06-03T00:48:59.125Z,959.14
2018-06-03T00:49:59.150Z,959.11
2018-06-03T00:50:59.174Z,959.1
2018-06-03T00:51:59.250Z,959.12
2018-06-03T00:52:59.225Z,959.08
2018-06-03T00:53:59.250Z,959.04
2018-06-03T00:54:59.276Z,959.02
2018-06-03T00:55:59.299Z,959.1
2018-06-03T00:56:59.324Z,959.08
2018-06-03T00:57:59.349Z,959.03
2018-06-03T00:58:59.374Z,959.05
2018-06-03T00:59:59.400Z,959.02
2018-06-03T01:00:59.424Z,959.07
2018-06-03T01:01:59.550Z,959.05
2018-06-03T01:02:59.472Z,959.04
2018-06-03T01:03:59.499Z,959.04
2018-06-03T01:04:59.523Z,959.06
2018-06-03T01:05:59.547Z,959.02
2018-06-03T01:06:59.622Z,959.06
2018-06-03T01:07:59.597Z,959.01
2018-06-03T01:08:59.623Z,959.02
2018-06-03T01:09:59.645Z,959.04
2018-06-03T01:10:59.670Z,959.02
2018-06-03T01:11:59.694Z,959
2018-06-03T01:12:59.720Z,958.99
2018-06-03T01:13:59.744Z,959.01
2018-06-03T01:14:59.774Z,958.96
2018-06-03T01:15:59.793Z,958.94
2018-06-03T01:16:59.818Z,958.95
2018-06-03T01:17:59.844Z,958.94
2018-06-03T01:18:59.868Z,958.94
2018-06-03T01:19:59.894Z,958.95
2018-06-03T01:20:59.924Z,958.91
2018-06-03T01:21:59.999Z,958.93
2018-06-03T01:22:59.974Z,958.93
2018-06-03T01:23:59.992Z,958.93
2018-06-03T01:25:00.020Z,958.92
2018-06-03T01:26:00.042Z,958.93
2018-06-03T01:27:00.067Z,958.9
2018-06-03T01:28:00.090Z,958.91
2018-06-03T01:29:00.116Z,958.87
2018-06-03T01:30:00.143Z,958.92
2018-06-03T01:31:00.166Z,958.92
2018-06-03T01:32:00.189Z,958.94
2018-06-03T01:33:00.232Z,958.93
2018-06-03T01:34:00.241Z,958.9
2018-06-03T01:35:00.264Z,958.9
2018-06-03T01:36:00.289Z,958.91
2018-06-03T01:37:00.363Z,958.9
2018-06-03T01:38:00.340Z,958.88
2018-06-03T01:39:00.365Z,958.87
2018-06-03T01:40:00.388Z,958.87
2018-06-03T01:41:00.412Z,958.89
2018-06-03T01:42:00.437Z,958.86
2018-06-03T01:43:00.462Z,958.86
2018-06-03T01:44:00.486Z,958.88
2018-06-03T01:45:00.511Z,958.85
2018-06-03T01:46:00.536Z,958.85
2018-06-03T01:47:00.560Z,958.83
2018-06-03T01:48:00.586Z,958.86
2018-06-03T01:49:00.609Z,958.82
2018-06-03T01:50:00.635Z,958.82
2018-06-03T01:51:00.659Z,958.8
2018-06-03T01:52:00.739Z,958.79
2018-06-03T01:53:00.710Z,958.78
2018-06-03T01:54:00.735Z,958.81
2018-06-03T01:55:00.759Z,958.78
2018-06-03T01:56:00.786Z,958.78
2018-06-03T01:57:00.810Z,958.75
2018-06-03T01:58:00.834Z,958.75
2018-06-03T01:59:00.858Z,958.73
2018-06-03T02:00:00.883Z,958.76
2018-06-03T02:01:00.912Z,958.75
2018-06-03T02:02:00.932Z,958.72
2018-06-03T02:03:00.957Z,958.69
2018-06-03T02:04:00.983Z,958.71
2018-06-03T02:05:01.006Z,958.68
2018-06-03T02:06:01.032Z,958.69
2018-06-03T02:07:01.115Z,958.65
2018-06-03T02:08:01.086Z,958.68
2018-06-03T02:09:01.109Z,958.67
2018-06-03T02:10:01.131Z,958.66
2018-06-03T02:11:01.156Z,958.67
2018-06-03T02:12:01.188Z,958.66
2018-06-03T02:13:01.204Z,958.63
2018-06-03T02:14:01.230Z,958.64
2018-06-03T02:15:01.256Z,958.64
2018-06-03T02:16:01.278Z,958.61
2018-06-03T02:17:01.303Z,958.59
2018-06-03T02:18:01.329Z,958.63
2018-06-03T02:19:01.354Z,958.65
2018-06-03T02:20:01.382Z,958.64
2018-06-03T02:21:01.402Z,958.64
2018-06-03T02:22:01.478Z,958.61
2018-06-03T02:23:01.452Z,958.64
2018-06-03T02:24:01.477Z,958.65
2018-06-03T02:25:01.500Z,958.62
2018-06-03T02:26:01.528Z,958.64
2018-06-03T02:27:01.549Z,958.63
2018-06-03T02:28:01.579Z,958.64
2018-06-03T02:29:01.600Z,958.61
2018-06-03T02:30:01.626Z,958.65
2018-06-03T02:31:01.648Z,958.65
2018-06-03T02:32:01.727Z,958.66
2018-06-03T02:33:01.703Z,958.66
2018-06-03T02:34:01.722Z,958.66
2018-06-03T02:35:01.746Z,958.63
2018-06-03T02:36:01.771Z,958.66
2018-06-03T02:37:01.848Z,958.64
2018-06-03T02:38:01.820Z,958.66
2018-06-03T02:39:01.855Z,958.65
2018-06-03T02:40:01.879Z,958.61
2018-06-03T02:41:01.901Z,958.65
2018-06-03T02:42:01.918Z,958.66
2018-06-03T02:43:01.943Z,958.63
2018-06-03T02:44:01.966Z,958.64
2018-06-03T02:45:01.995Z,958.61
2018-06-03T02:46:02.017Z,958.64
2018-06-03T02:47:02.042Z,958.6
2018-06-03T02:48:02.066Z,958.61
2018-06-03T02:49:02.095Z,958.62
2018-06-03T02:50:02.118Z,958.63
2018-06-03T02:51:02.142Z,958.63
2018-06-03T02:52:02.217Z,958.64
2018-06-03T02:53:02.192Z,958.66
2018-06-03T02:54:02.217Z,958.63
2018-06-03T02:55:02.242Z,958.64
2018-06-03T02:56:02.267Z,958.64
2018-06-03T02:57:02.292Z,958.58
2018-06-03T02:58:02.318Z,958.61
2018-06-03T02:59:02.341Z,958.58
2018-06-03T03:00:02.365Z,958.58
2018-06-03T03:01:02.387Z,958.6
2018-06-03T03:02:02.413Z,958.61
2018-06-03T03:03:02.440Z,958.62
2018-06-03T03:04:02.462Z,958.63
2018-06-03T03:05:02.489Z,958.65
2018-06-03T03:06:02.511Z,958.65
2018-06-03T03:07:02.594Z,958.63
2018-06-03T03:08:02.559Z,958.63
2018-06-03T03:09:02.588Z,958.63
2018-06-03T03:10:02.612Z,958.61
2018-06-03T03:11:02.632Z,958.59
2018-06-03T03:12:02.658Z,958.58
2018-06-03T03:13:02.682Z,958.56
2018-06-03T03:14:02.707Z,958.56
2018-06-03T03:15:02.753Z,958.55
2018-06-03T03:16:02.757Z,958.55
2018-06-03T03:17:02.781Z,958.55
2018-06-03T03:18:02.803Z,958.53
2018-06-03T03:19:02.830Z,958.54
2018-06-03T03:20:02.854Z,958.55
2018-06-03T03:21:02.879Z,958.49
2018-06-03T03:22:02.950Z,958.5
2018-06-03T03:23:02.925Z,958.54
2018-06-03T03:24:02.949Z,958.55
2018-06-03T03:25:02.975Z,958.55
2018-06-03T03:26:02.996Z,958.58
2018-06-03T03:27:03.022Z,958.58
2018-06-03T03:28:03.047Z,958.57
2018-06-03T03:29:03.071Z,958.59
2018-06-03T03:30:03.155Z,958.6
2018-06-03T03:31:03.120Z,958.59
2018-06-03T03:32:03.147Z,958.6
2018-06-03T03:33:03.172Z,958.62
2018-06-03T03:34:03.196Z,958.6
2018-06-03T03:35:03.220Z,958.63
2018-06-03T03:36:03.244Z,958.63
2018-06-03T03:37:03.318Z,958.6
2018-06-03T03:38:03.295Z,958.59
2018-06-03T03:39:03.320Z,958.57
2018-06-03T03:40:03.342Z,958.59
2018-06-03T03:41:03.368Z,958.57
2018-06-03T03:42:03.401Z,958.56
2018-06-03T03:43:03.417Z,958.56
2018-06-03T03:44:03.440Z,958.56
2018-06-03T03:45:03.465Z,958.56
2018-06-03T03:46:03.495Z,958.57
2018-06-03T03:47:03.515Z,958.59
2018-06-03T03:48:03.538Z,958.6
2018-06-03T03:49:03.563Z,958.61
2018-06-03T03:50:03.588Z,958.6
2018-06-03T03:51:03.613Z,958.65
2018-06-03T03:52:03.690Z,958.65
2018-06-03T03:53:03.663Z,958.65
2018-06-03T03:54:03.689Z,958.61
2018-06-03T03:55:03.711Z,958.65
2018-06-03T03:56:03.738Z,958.64
2018-06-03T03:57:03.761Z,958.62
2018-06-03T03:58:03.784Z,958.61
2018-06-03T03:59:03.808Z,958.61
2018-06-03T04:00:03.834Z,958.66
2018-06-03T04:01:03.860Z,958.68
2018-06-03T04:02:03.883Z,958.65
2018-06-03T04:03:03.906Z,958.68
2018-06-03T04:04:03.931Z,958.67
2018-06-03T04:05:03.955Z,958.68
2018-06-03T04:06:03.978Z,958.73
2018-06-03T04:07:04.054Z,958.75
2018-06-03T04:08:04.029Z,958.74
2018-06-03T04:09:04.054Z,958.76
2018-06-03T04:10:04.077Z,958.74
2018-06-03T04:11:04.105Z,958.76
2018-06-03T04:12:04.126Z,958.76
2018-06-03T04:13:04.152Z,958.78
2018-06-03T04:14:04.176Z,958.79
2018-06-03T04:15:04.201Z,958.84
2018-06-03T04:16:04.226Z,958.85
2018-06-03T04:17:04.251Z,958.87
2018-06-03T04:18:04.274Z,958.86
2018-06-03T04:19:04.299Z,958.89
2018-06-03T04:20:04.322Z,958.87
2018-06-03T04:21:04.348Z,958.9
2018-06-03T04:22:04.422Z,958.9
2018-06-03T04:23:04.398Z,958.93
2018-06-03T04:24:04.421Z,958.94
2018-06-03T04:25:04.446Z,958.91
2018-06-03T04:26:04.472Z,958.93
2018-06-03T04:27:04.496Z,958.94
2018-06-03T04:28:04.523Z,958.96
2018-06-03T04:29:04.551Z,958.93
2018-06-03T04:30:04.571Z,958.92
2018-06-03T04:31:04.596Z,958.92
2018-06-03T04:32:04.620Z,958.9
2018-06-03T04:33:04.645Z,958.92
2018-06-03T04:34:04.669Z,958.94
2018-06-03T04:35:04.696Z,958.93
2018-06-03T04:36:04.719Z,958.94
2018-06-03T04:37:04.793Z,958.97
2018-06-03T04:38:04.767Z,958.98
2018-06-03T04:39:04.795Z,958.98
2018-06-03T04:40:04.818Z,959
2018-06-03T04:41:04.841Z,958.98
2018-06-03T04:42:04.864Z,958.99
2018-06-03T04:43:04.889Z,958.99
2018-06-03T04:44:04.915Z,959
2018-06-03T04:45:04.939Z,959.02
2018-06-03T04:46:04.965Z,958.99
2018-06-03T04:47:04.988Z,959.02
2018-06-03T04:48:05.012Z,959.05
2018-06-03T04:49:05.056Z,959.04
2018-06-03T04:50:05.061Z,959.01
2018-06-03T04:51:05.087Z,959.05
2018-06-03T04:52:05.162Z,959.03
2018-06-03T04:53:05.137Z,959.06
2018-06-03T04:54:05.161Z,959.03
2018-06-03T04:55:05.241Z,959.03
2018-06-03T04:56:05.210Z,959.1
2018-06-03T04:57:05.240Z,959.09
2018-06-03T04:58:05.259Z,959.08
2018-06-03T04:59:05.285Z,959.11
2018-06-03T05:00:05.309Z,959.14
2018-06-03T05:01:05.334Z,959.1
2018-06-03T05:02:05.360Z,959.12
2018-06-03T05:03:05.383Z,959.12
2018-06-03T05:04:05.412Z,959.16
2018-06-03T05:05:05.433Z,959.16
2018-06-03T05:06:05.458Z,959.17
2018-06-03T05:07:05.534Z,959.17
2018-06-03T05:08:05.506Z,959.2
2018-06-03T05:09:05.533Z,959.21
2018-06-03T05:10:05.558Z,959.19
2018-06-03T05:11:05.583Z,959.2
2018-06-03T05:12:05.760Z,959.21
2018-06-03T05:13:05.631Z,959.14
2018-06-03T05:14:05.656Z,959.17
2018-06-03T05:15:05.683Z,959.15
2018-06-03T05:16:05.708Z,959.18
2018-06-03T05:17:05.730Z,959.21
2018-06-03T05:18:05.757Z,959.16
2018-06-03T05:19:05.780Z,959.22
2018-06-03T05:20:05.806Z,959.16
2018-06-03T05:21:05.831Z,959.17
2018-06-03T05:22:05.905Z,959.17
2018-06-03T05:23:05.881Z,959.21
2018-06-03T05:24:05.905Z,959.22
2018-06-03T05:25:05.930Z,959.24
2018-06-03T05:26:05.954Z,959.21
2018-06-03T05:27:05.981Z,959.23
2018-06-03T05:28:06.009Z,959.23
2018-06-03T05:29:06.036Z,959.18
2018-06-03T05:30:06.056Z,959.2
2018-06-03T05:31:06.082Z,959.2
2018-06-03T05:32:06.264Z,959.17
2018-06-03T05:33:06.132Z,959.15
2018-06-03T05:34:06.156Z,959.14
2018-06-03T05:35:06.182Z,959.16
2018-06-03T05:36:06.210Z,959.13
2018-06-03T05:37:06.382Z,959.16
2018-06-03T05:38:06.256Z,959.11
2018-06-03T05:39:06.284Z,959.14
2018-06-03T05:40:06.313Z,959.14
2018-06-03T05:41:06.333Z,959.13
2018-06-03T05:42:06.356Z,959.16
2018-06-03T05:43:06.388Z,959.15
2018-06-03T05:44:06.429Z,959.14
2018-06-03T05:45:06.433Z,959.12
2018-06-03T05:46:06.457Z,959.15
2018-06-03T05:47:06.483Z,959.15
2018-06-03T05:48:06.507Z,959.13
2018-06-03T05:49:06.534Z,959.12
2018-06-03T05:50:06.560Z,959.11
2018-06-03T05:51:06.585Z,959.15
2018-06-03T05:52:06.661Z,959.15
2018-06-03T05:53:06.636Z,959.09
2018-06-03T05:54:06.661Z,959.08
2018-06-03T05:55:06.685Z,959.15
2018-06-03T05:56:06.710Z,959.18
2018-06-03T05:57:06.737Z,959.16
2018-06-03T05:58:06.762Z,959.15
2018-06-03T05:59:06.787Z,959.15
2018-06-03T06:00:06.813Z,959.14
2018-06-03T06:01:06.838Z,959.16
2018-06-03T06:02:06.863Z,959.15
2018-06-03T06:03:06.889Z,959.15
2018-06-03T06:04:06.914Z,959.15
2018-06-03T06:05:06.941Z,959.18
2018-06-03T06:06:06.965Z,959.18
2018-06-03T06:07:07.042Z,959.16
2018-06-03T06:08:07.021Z,959.19
2018-06-03T06:09:07.102Z,959.14
2018-06-03T06:10:07.068Z,959.17
2018-06-03T06:11:07.101Z,959.14
2018-06-03T06:12:07.121Z,959.16
2018-06-03T06:13:07.146Z,959.17
2018-06-03T06:14:07.170Z,959.15
2018-06-03T06:15:07.196Z,959.17
2018-06-03T06:16:07.227Z,959.14
2018-06-03T06:17:07.248Z,959.15
2018-06-03T06:18:07.273Z,959.19
2018-06-03T06:19:07.300Z,959.18
2018-06-03T06:20:07.336Z,959.16
2018-06-03T06:21:07.352Z,959.18
2018-06-03T06:22:07.428Z,959.2
2018-06-03T06:23:07.404Z,959.2
2018-06-03T06:24:07.428Z,959.23
2018-06-03T06:25:07.456Z,959.25
2018-06-03T06:26:07.483Z,959.21
2018-06-03T06:27:07.511Z,959.24
2018-06-03T06:28:07.533Z,959.16
2018-06-03T06:29:07.561Z,959.2
2018-06-03T06:30:07.586Z,959.19
2018-06-03T06:31:07.612Z,959.17
2018-06-03T06:32:08.837Z,959.17
2018-06-03T06:33:07.661Z,959.15
2018-06-03T06:34:07.689Z,959.14
2018-06-03T06:35:07.714Z,959.15
2018-06-03T06:36:07.742Z,959.17
2018-06-03T06:37:07.767Z,959.19
2018-06-03T06:38:07.794Z,959.16
2018-06-03T06:39:07.821Z,959.16
2018-06-03T06:40:07.846Z,959.18
2018-06-03T06:41:07.873Z,959.16
2018-06-03T06:42:07.899Z,959.17
2018-06-03T06:43:07.924Z,959.13
2018-06-03T06:44:07.952Z,959.15
2018-06-03T06:45:07.982Z,959.17
2018-06-03T06:46:08.003Z,959.13
2018-06-03T06:47:08.032Z,959.18
2018-06-03T06:48:08.057Z,959.16
2018-06-03T06:49:08.084Z,959.19
2018-06-03T06:50:08.153Z,959.15
2018-06-03T06:51:08.135Z,959.14
2018-06-03T06:52:08.163Z,959.11
2018-06-03T06:53:08.189Z,959.16
2018-06-03T06:54:08.220Z,959.1
2018-06-03T06:55:08.255Z,959.12
2018-06-03T06:56:08.275Z,959.13
2018-06-03T06:57:08.293Z,959.12
2018-06-03T06:58:08.322Z,959.16
2018-06-03T06:59:08.350Z,959.14
2018-06-03T07:00:08.407Z,959.15
2018-06-03T07:01:08.402Z,959.17
2018-06-03T07:02:08.427Z,959.16
2018-06-03T07:03:08.453Z,959.18
2018-06-03T07:04:08.480Z,959.23
2018-06-03T07:05:08.505Z,959.23
2018-06-03T07:06:08.535Z,959.23
2018-06-03T07:07:08.560Z,959.2
2018-06-03T07:08:08.586Z,959.25
2018-06-03T07:09:08.614Z,959.28
2018-06-03T07:10:08.641Z,959.31
2018-06-03T07:11:08.672Z,959.33
2018-06-03T07:12:08.693Z,959.29
2018-06-03T07:13:08.730Z,959.29
2018-06-03T07:14:08.748Z,959.28
2018-06-03T07:15:08.776Z,959.27
2018-06-03T07:16:08.803Z,959.26
2018-06-03T07:17:08.833Z,959.27
2018-06-03T07:18:08.856Z,959.27
2018-06-03T07:19:08.891Z,959.23
2018-06-03T07:20:08.911Z,959.24
2018-06-03T07:21:08.939Z,959.23
2018-06-03T07:22:08.965Z,959.27
2018-06-03T07:23:08.991Z,959.25
2018-06-03T07:24:09.020Z,959.26
2018-06-03T07:25:09.047Z,959.26
2018-06-03T07:26:09.076Z,959.29
2018-06-03T07:27:09.109Z,959.28
2018-06-03T07:28:09.127Z,959.3
2018-06-03T07:29:09.160Z,959.3
2018-06-03T07:30:09.182Z,959.26
2018-06-03T07:31:09.209Z,959.29
2018-06-03T07:32:09.241Z,959.3
2018-06-03T07:33:09.263Z,959.31
2018-06-03T07:34:09.289Z,959.29
2018-06-03T07:35:09.329Z,959.33
2018-06-03T07:36:09.346Z,959.32
2018-06-03T07:37:09.372Z,959.31
2018-06-03T07:38:09.399Z,959.29
2018-06-03T07:39:09.428Z,959.32
2018-06-03T07:40:09.460Z,959.28
2018-06-03T07:41:09.482Z,959.31
2018-06-03T07:42:09.509Z,959.3
2018-06-03T07:43:09.545Z,959.3
2018-06-03T07:44:09.565Z,959.31
2018-06-03T07:45:09.594Z,959.31
2018-06-03T07:46:09.620Z,959.27
2018-06-03T07:47:09.647Z,959.27
2018-06-03T07:48:09.674Z,959.24
2018-06-03T07:49:09.707Z,959.24
2018-06-03T07:50:09.731Z,959.22
2018-06-03T07:51:09.764Z,959.21
2018-06-03T07:52:09.784Z,959.2
2018-06-03T07:53:09.814Z,959.21
2018-06-03T07:54:09.841Z,959.23
2018-06-03T07:55:09.868Z,959.22
2018-06-03T07:56:09.896Z,959.23
2018-06-03T07:57:09.920Z,959.2
2018-06-03T07:58:09.954Z,959.19
2018-06-03T07:59:09.979Z,959.19
2018-06-03T08:00:10.005Z,959.17
2018-06-03T08:01:10.030Z,959.17
2018-06-03T08:02:10.057Z,959.14
2018-06-03T08:03:10.087Z,959.15
2018-06-03T08:04:10.111Z,959.15
2018-06-03T08:05:10.139Z,959.13
2018-06-03T08:06:10.167Z,959.17
2018-06-03T08:07:10.194Z,959.13
2018-06-03T08:08:10.225Z,959.15
2018-06-03T08:09:10.249Z,959.18
2018-06-03T08:10:10.276Z,959.24
2018-06-03T08:11:10.304Z,959.22
2018-06-03T08:12:10.335Z,959.16
2018-06-03T08:13:10.359Z,959.23
2018-06-03T08:14:10.386Z,959.2
2018-06-03T08:15:10.415Z,959.2
2018-06-03T08:16:10.443Z,959.19
2018-06-03T08:17:10.472Z,959.18
2018-06-03T08:18:10.498Z,959.2
2018-06-03T08:19:10.525Z,959.22
2018-06-03T08:20:10.554Z,959.25
2018-06-03T08:21:10.582Z,959.25
2018-06-03T08:22:10.608Z,959.22
2018-06-03T08:23:10.648Z,959.24
2018-06-03T08:24:10.666Z,959.18
2018-06-03T08:25:10.693Z,959.17
2018-06-03T08:26:10.720Z,959.17
2018-06-03T08:27:10.749Z,959.15
2018-06-03T08:28:10.776Z,959.15
2018-06-03T08:29:10.804Z,959.13
2018-06-03T08:30:10.831Z,959.14
2018-06-03T08:31:10.860Z,959.09
2018-06-03T08:32:10.886Z,959.12
2018-06-03T08:33:10.914Z,959.08
2018-06-03T08:34:10.942Z,959.11
2018-06-03T08:35:10.970Z,959.12
2018-06-03T08:36:10.997Z,959.08
2018-06-03T08:37:11.026Z,959.09
2018-06-03T08:38:11.056Z,959.07
2018-06-03T08:39:11.109Z,959.1
2018-06-03T08:40:11.110Z,959.06
2018-06-03T08:41:11.138Z,959.09
2018-06-03T08:42:11.170Z,959.13
2018-06-03T08:43:11.193Z,959.16
2018-06-03T08:44:11.222Z,959.17
2018-06-03T08:45:11.255Z,959.17
2018-06-03T08:46:11.281Z,959.17
2018-06-03T08:47:11.307Z,959.19
2018-06-03T08:48:11.335Z,959.19
2018-06-03T08:49:11.363Z,959.22
2018-06-03T08:50:11.393Z,959.21
2018-06-03T08:51:11.420Z,959.19
2018-06-03T08:52:11.453Z,959.16
2018-06-03T08:53:11.477Z,959.17
2018-06-03T08:54:11.504Z,959.22
2018-06-03T08:55:11.533Z,959.23
2018-06-03T08:56:11.562Z,959.24
2018-06-03T08:57:11.590Z,959.23
2018-06-03T08:58:11.623Z,959.19
2018-06-03T08:59:11.647Z,959.17
2018-06-03T09:00:11.674Z,959.12
2018-06-03T09:01:11.704Z,959.14
2018-06-03T09:02:11.732Z,959.19
2018-06-03T09:03:11.761Z,959.18
2018-06-03T09:04:11.788Z,959.13
2018-06-03T09:05:11.816Z,959.1
2018-06-03T09:06:11.846Z,959.08
2018-06-03T09:07:11.874Z,959.1
2018-06-03T09:08:11.903Z,959.1
2018-06-03T09:09:11.937Z,959.06
2018-06-03T09:10:11.961Z,959.06
2018-06-03T09:11:11.990Z,959.09
2018-06-03T09:12:12.020Z,959.1
2018-06-03T09:13:12.106Z,959.09
2018-06-03T09:14:12.079Z,959.12
2018-06-03T09:15:12.107Z,959.16
2018-06-03T09:16:12.134Z,959.12
2018-06-03T09:17:12.164Z,959.12
2018-06-03T09:18:12.193Z,959.12
2018-06-03T09:19:12.220Z,959.14
2018-06-03T09:20:12.249Z,959.11
2018-06-03T09:21:12.280Z,959.14
2018-06-03T09:22:12.311Z,959.12
2018-06-03T09:23:12.338Z,959.1
2018-06-03T09:24:12.368Z,959.12
2018-06-03T09:25:12.475Z,959.08
2018-06-03T09:26:12.427Z,959.1
2018-06-03T09:27:12.461Z,959.1
2018-06-03T09:28:12.491Z,959.11
2018-06-03T09:29:12.515Z,959.03
2018-06-03T09:30:12.545Z,959.06
2018-06-03T09:31:12.573Z,959.06
2018-06-03T09:32:12.602Z,959.04
2018-06-03T09:33:12.632Z,959.03
2018-06-03T09:34:12.660Z,959.01
2018-06-03T09:35:12.693Z,959.02
2018-06-03T09:36:12.730Z,959.04
2018-06-03T09:37:12.753Z,958.99
2018-06-03T09:38:12.792Z,959.03
2018-06-03T09:39:12.815Z,959.04
2018-06-03T09:40:12.838Z,959.05
2018-06-03T09:41:12.879Z,959.05
2018-06-03T09:42:12.897Z,959.07
2018-06-03T09:43:12.928Z,959.03
2018-06-03T09:44:12.959Z,959
2018-06-03T09:45:12.991Z,959.01
2018-06-03T09:46:13.016Z,959
2018-06-03T09:47:13.046Z,959.01
2018-06-03T09:48:13.080Z,958.99
2018-06-03T09:49:13.107Z,958.95
2018-06-03T09:50:13.139Z,958.95
2018-06-03T09:51:13.171Z,958.95
2018-06-03T09:52:13.200Z,958.96
2018-06-03T09:53:13.287Z,958.88
2018-06-03T09:54:13.262Z,958.92
2018-06-03T09:55:13.295Z,958.95
2018-06-03T09:56:13.325Z,958.89
2018-06-03T09:57:13.357Z,958.91
2018-06-03T09:58:13.388Z,958.94
2018-06-03T09:59:13.421Z,958.94
2018-06-03T10:00:13.454Z,958.87
2018-06-03T10:01:13.483Z,958.89
2018-06-03T10:02:13.516Z,958.91
2018-06-03T10:03:13.557Z,958.88
2018-06-03T10:04:13.583Z,958.87
2018-06-03T10:05:13.617Z,958.88
2018-06-03T10:06:13.647Z,958.92
2018-06-03T10:07:13.681Z,958.84
2018-06-03T10:08:13.711Z,958.87
2018-06-03T10:09:13.750Z,958.88
2018-06-03T10:10:13.803Z,958.89
2018-06-03T10:11:13.811Z,958.87
2018-06-03T10:12:13.847Z,958.87
2018-06-03T10:13:13.880Z,958.88
2018-06-03T10:14:13.916Z,958.86
2018-06-03T10:15:13.946Z,958.87
2018-06-03T10:16:14.044Z,958.85
2018-06-03T10:17:14.013Z,958.87
2018-06-03T10:18:14.119Z,958.89
2018-06-03T10:19:14.079Z,958.86
2018-06-03T10:20:14.115Z,958.82
2018-06-03T10:21:14.150Z,958.86
2018-06-03T10:22:14.187Z,958.84
2018-06-03T10:23:14.216Z,958.87
2018-06-03T10:24:14.254Z,958.8
2018-06-03T10:25:14.286Z,958.79
2018-06-03T10:26:14.335Z,958.76
2018-06-03T10:27:14.350Z,958.73
2018-06-03T10:28:14.384Z,958.77
2018-06-03T10:29:14.416Z,958.77
2018-06-03T10:30:14.451Z,958.74
2018-06-03T10:31:14.481Z,958.76
2018-06-03T10:32:14.514Z,958.79
2018-06-03T10:33:14.627Z,958.77
2018-06-03T10:34:14.590Z,958.77
2018-06-03T10:35:14.612Z,958.69
2018-06-03T10:36:14.645Z,958.7
2018-06-03T10:37:14.677Z,958.75
2018-06-03T10:38:14.759Z,958.79
2018-06-03T10:39:14.743Z,958.68
2018-06-03T10:40:14.774Z,958.72
2018-06-03T10:41:14.806Z,958.72
2018-06-03T10:42:14.837Z,958.76
2018-06-03T10:43:14.873Z,958.74
2018-06-03T10:44:14.905Z,958.72
2018-06-03T10:45:14.939Z,958.66
2018-06-03T10:46:14.970Z,958.72
2018-06-03T10:47:15.004Z,958.69
2018-06-03T10:48:15.090Z,958.72
2018-06-03T10:49:15.071Z,958.71
2018-06-03T10:50:15.104Z,958.68
2018-06-03T10:51:15.140Z,958.68
2018-06-03T10:52:15.171Z,958.69
2018-06-03T10:53:15.205Z,958.65
2018-06-03T10:54:15.253Z,958.63
2018-06-03T10:55:15.271Z,958.67
2018-06-03T10:56:15.305Z,958.64
2018-06-03T10:57:15.341Z,958.64
2018-06-03T10:58:15.375Z,958.61
2018-06-03T10:59:15.409Z,958.66
2018-06-03T11:00:15.444Z,958.65
2018-06-03T11:01:15.479Z,958.67
2018-06-03T11:02:15.512Z,958.65
2018-06-03T11:03:15.599Z,958.62
2018-06-03T11:04:15.583Z,958.6
2018-06-03T11:05:15.619Z,958.57
2018-06-03T11:06:15.652Z,958.59
2018-06-03T11:07:15.687Z,958.51
2018-06-03T11:08:15.724Z,958.58
2018-06-03T11:09:15.758Z,958.61
2018-06-03T11:10:15.793Z,958.63
2018-06-03T11:11:15.827Z,958.56
2018-06-03T11:12:15.864Z,958.55
2018-06-03T11:13:15.896Z,958.49
2018-06-03T11:14:15.930Z,958.48
2018-06-03T11:15:15.969Z,958.55
2018-06-03T11:16:16.001Z,958.46
2018-06-03T11:17:16.034Z,958.51
2018-06-03T11:18:16.119Z,958.56
2018-06-03T11:19:16.104Z,958.56
2018-06-03T11:20:16.137Z,958.55
2018-06-03T11:21:16.172Z,958.52
2018-06-03T11:22:16.206Z,958.55
2018-06-03T11:23:16.240Z,958.5
2018-06-03T11:24:16.274Z,958.51
2018-06-03T11:25:16.310Z,958.51
2018-06-03T11:26:16.345Z,958.44
2018-06-03T11:27:16.379Z,958.44
2018-06-03T11:28:16.414Z,958.45
2018-06-03T11:29:16.452Z,958.39
2018-06-03T11:30:16.483Z,958.44
2018-06-03T11:31:16.520Z,958.46
2018-06-03T11:32:16.554Z,958.43
2018-06-03T11:33:16.646Z,958.46
2018-06-03T11:34:16.625Z,958.45
2018-06-03T11:35:16.665Z,958.41
2018-06-03T11:36:16.695Z,958.42
2018-06-03T11:37:16.731Z,958.41
2018-06-03T11:38:16.765Z,958.36
2018-06-03T11:39:16.800Z,958.34
2018-06-03T11:40:16.836Z,958.35
2018-06-03T11:41:16.871Z,958.36
2018-06-03T11:42:16.911Z,958.35
2018-06-03T11:43:16.943Z,958.35
2018-06-03T11:44:16.981Z,958.34
2018-06-03T11:45:17.016Z,958.3
2018-06-03T11:46:17.051Z,958.32
2018-06-03T11:47:17.088Z,958.28
2018-06-03T11:48:17.177Z,958.29
2018-06-03T11:49:17.160Z,958.27
2018-06-03T11:50:17.197Z,958.26
2018-06-03T11:51:17.233Z,958.29
2018-06-03T11:52:17.271Z,958.27
2018-06-03T11:53:17.307Z,958.23
2018-06-03T11:54:17.344Z,958.25
2018-06-03T11:55:17.380Z,958.13
2018-06-03T11:56:17.419Z,958.13
2018-06-03T11:57:17.461Z,958.08
2018-06-03T11:58:17.542Z,958.1
2018-06-03T11:59:17.530Z,958.16
2018-06-03T12:00:17.570Z,958.18
2018-06-03T12:01:17.602Z,958.15
2018-06-03T12:02:17.642Z,958.15
2018-06-03T12:03:17.725Z,958.16
2018-06-03T12:04:17.709Z,958.3
2018-06-03T12:05:17.744Z,958.16
2018-06-03T12:06:17.781Z,958.16
2018-06-03T12:07:17.816Z,958.3
2018-06-03T12:08:17.932Z,958.25
2018-06-03T12:09:17.887Z,958.27
2018-06-03T12:10:17.923Z,958.14
2018-06-03T12:11:17.958Z,958.28
2018-06-03T12:12:17.993Z,958.27
2018-06-03T12:13:18.026Z,958.23
2018-06-03T12:14:18.065Z,958.26
2018-06-03T12:15:18.096Z,958.26
2018-06-03T12:16:18.133Z,958.14
2018-06-03T12:17:18.167Z,958.08
2018-06-03T12:18:18.254Z,958.23
2018-06-03T12:19:18.239Z,958.23
2018-06-03T12:20:18.275Z,958.2
2018-06-03T12:21:18.311Z,958.27
2018-06-03T12:22:18.347Z,958.08
2018-06-03T12:23:18.384Z,958.02
2018-06-03T12:24:18.420Z,958.03
2018-06-03T12:25:18.456Z,958.13
2018-06-03T12:26:18.492Z,958.16
2018-06-03T12:27:18.528Z,958.18
2018-06-03T12:28:18.616Z,958.16
2018-06-03T12:29:18.601Z,958.14
2018-06-03T12:30:18.636Z,958.01
2018-06-03T12:31:18.673Z,957.96